sensor_id;sensor_type;location;lat;lon;timestamp;pressure;altitude;pressure_sealevel;temperature;humidity
84696;BME280;74913;40.204;44.532;2024-02-26T00:00:32;88866.13;;;1.25;37.15
84696;BME280;74913;40.204;44.532;2024-02-26T00:03:00;88860.81;;;1.25;37.29
84696;BME280;74913;40.204;44.532;2024-02-26T00:05:26;88855.19;;;1.23;37.02
84696;BME280;74913;40.204;44.532;2024-02-26T00:07:52;88849.03;;;1.17;36.83
84696;BME280;74913;40.204;44.532;2024-02-26T00:10:18;88849.03;;;1.17;36.87
84696;BME280;74913;40.204;44.532;2024-02-26T00:12:44;88840.16;;;1.02;36.76
84696;BME280;74913;40.204;44.532;2024-02-26T00:15:10;88858.13;;;1.16;37.12
84696;BME280;74913;40.204;44.532;2024-02-26T00:17:36;88856.69;;;1.15;36.81
84696;BME280;74913;40.204;44.532;2024-02-26T00:20:02;88857.38;;;1.15;37.09
84696;BME280;74913;40.204;44.532;2024-02-26T00:22:30;88845.47;;;1.11;37.02
84696;BME280;74913;40.204;44.532;2024-02-26T00:24:56;88847.97;;;1.14;37.25
84696;BME280;74913;40.204;44.532;2024-02-26T00:27:21;88859.91;;;1.19;37.05
84696;BME280;74913;40.204;44.532;2024-02-26T00:29:47;88863.44;;;1.16;36.66
84696;BME280;74913;40.204;44.532;2024-02-26T00:32:13;88866.38;;;1.09;37.14
84696;BME280;74913;40.204;44.532;2024-02-26T00:34:38;88861.38;;;1.11;37.41
84696;BME280;74913;40.204;44.532;2024-02-26T00:37:04;88859.28;;;1.06;36.87
84696;BME280;74913;40.204;44.532;2024-02-26T00:39:30;88865.91;;;1.10;37.18
84696;BME280;74913;40.204;44.532;2024-02-26T00:41:55;88866.94;;;1.04;36.92
84696;BME280;74913;40.204;44.532;2024-02-26T00:44:21;88875.47;;;0.99;36.83
84696;BME280;74913;40.204;44.532;2024-02-26T00:46:46;88877.19;;;0.93;37.53
84696;BME280;74913;40.204;44.532;2024-02-26T00:49:12;88867.50;;;0.90;37.13
84696;BME280;74913;40.204;44.532;2024-02-26T00:51:38;88871.88;;;0.75;37.62
84696;BME280;74913;40.204;44.532;2024-02-26T00:54:03;88876.13;;;0.72;37.92
84696;BME280;74913;40.204;44.532;2024-02-26T00:56:29;88868.91;;;0.73;37.58
84696;BME280;74913;40.204;44.532;2024-02-26T00:58:54;88870.38;;;0.74;37.33
84696;BME280;74913;40.204;44.532;2024-02-26T01:01:20;88851.94;;;0.61;37.53
84696;BME280;74913;40.204;44.532;2024-02-26T01:03:46;88860.06;;;0.67;37.78
84696;BME280;74913;40.204;44.532;2024-02-26T01:06:11;88863.91;;;0.75;37.92
84696;BME280;74913;40.204;44.532;2024-02-26T01:08:37;88879.50;;;0.73;38.09
84696;BME280;74913;40.204;44.532;2024-02-26T01:11:03;88876.69;;;0.67;37.56
84696;BME280;74913;40.204;44.532;2024-02-26T01:13:29;88865.63;;;0.59;37.52
84696;BME280;74913;40.204;44.532;2024-02-26T01:15:54;88875.66;;;0.64;37.91
84696;BME280;74913;40.204;44.532;2024-02-26T01:18:20;88873.56;;;0.59;38.26
84696;BME280;74913;40.204;44.532;2024-02-26T01:20:46;88856.28;;;0.46;38.57
84696;BME280;74913;40.204;44.532;2024-02-26T01:23:12;88866.28;;;0.42;38.09
84696;BME280;74913;40.204;44.532;2024-02-26T01:25:38;88878.47;;;0.39;38.10
84696;BME280;74913;40.204;44.532;2024-02-26T01:28:05;88877.25;;;0.31;38.63
84696;BME280;74913;40.204;44.532;2024-02-26T01:30:31;88886.22;;;0.34;38.81
84696;BME280;74913;40.204;44.532;2024-02-26T01:32:56;88886.22;;;0.34;38.95
84696;BME280;74913;40.204;44.532;2024-02-26T01:35:22;88875.75;;;0.30;38.45
84696;BME280;74913;40.204;44.532;2024-02-26T01:37:48;88877.19;;;0.22;39.25
84696;BME280;74913;40.204;44.532;2024-02-26T01:40:14;88877.13;;;0.13;38.86
84696;BME280;74913;40.204;44.532;2024-02-26T01:42:45;88871.34;;;0.06;39.01
84696;BME280;74913;40.204;44.532;2024-02-26T01:45:15;88878.25;;;0.03;39.25
84696;BME280;74913;40.204;44.532;2024-02-26T01:47:49;88781.72;;;-0.67;40.13
84696;BME280;74913;40.204;44.532;2024-02-26T01:50:16;88874.00;;;-0.16;39.59
84696;BME280;74913;40.204;44.532;2024-02-26T01:52:42;88861.53;;;-0.16;39.92
84696;BME280;74913;40.204;44.532;2024-02-26T01:55:08;88864.59;;;-0.17;39.92
84696;BME280;74913;40.204;44.532;2024-02-26T01:57:34;88870.75;;;-0.20;39.76
84696;BME280;74913;40.204;44.532;2024-02-26T02:00:00;88872.84;;;-0.15;39.89
84696;BME280;74913;40.204;44.532;2024-02-26T02:02:26;88870.06;;;-0.12;39.87
84696;BME280;74913;40.204;44.532;2024-02-26T02:04:52;88855.50;;;-0.16;39.84
84696;BME280;74913;40.204;44.532;2024-02-26T02:07:18;88864.66;;;-0.08;39.61
84696;BME280;74913;40.204;44.532;2024-02-26T02:09:44;88867.00;;;-0.10;39.45
84696;BME280;74913;40.204;44.532;2024-02-26T02:12:10;88844.81;;;-0.13;39.68
84696;BME280;74913;40.204;44.532;2024-02-26T02:14:36;88857.47;;;-0.08;39.76
84696;BME280;74913;40.204;44.532;2024-02-26T02:17:02;88869.53;;;-0.07;39.55
84696;BME280;74913;40.204;44.532;2024-02-26T02:19:28;88866.47;;;-0.05;39.05
84696;BME280;74913;40.204;44.532;2024-02-26T02:21:53;88872.34;;;-0.01;38.88
84696;BME280;74913;40.204;44.532;2024-02-26T02:24:19;88861.78;;;-0.01;39.01
84696;BME280;74913;40.204;44.532;2024-02-26T02:26:45;88870.94;;;0.07;38.88
84696;BME280;74913;40.204;44.532;2024-02-26T02:29:11;88869.91;;;0.05;39.61
84696;BME280;74913;40.204;44.532;2024-02-26T02:31:37;88861.63;;;0.03;39.39
84696;BME280;74913;40.204;44.532;2024-02-26T02:34:03;88861.78;;;-0.01;39.41
84696;BME280;74913;40.204;44.532;2024-02-26T02:36:29;88872.34;;;-0.01;38.92
84696;BME280;74913;40.204;44.532;2024-02-26T02:38:54;88871.50;;;0.02;39.51
84696;BME280;74913;40.204;44.532;2024-02-26T02:41:20;88862.63;;;-0.04;39.53
84696;BME280;74913;40.204;44.532;2024-02-26T02:43:46;88864.72;;;0.01;38.83
84696;BME280;74913;40.204;44.532;2024-02-26T02:46:11;88859.69;;;-0.06;38.98
84696;BME280;74913;40.204;44.532;2024-02-26T02:48:37;88865.41;;;-0.08;38.78
84696;BME280;74913;40.204;44.532;2024-02-26T02:51:04;88857.00;;;-0.15;38.94
84696;BME280;74913;40.204;44.532;2024-02-26T02:53:29;88862.03;;;-0.08;39.30
84696;BME280;74913;40.204;44.532;2024-02-26T02:55:55;88864.97;;;-0.06;38.61
84696;BME280;74913;40.204;44.532;2024-02-26T02:58:21;88842.31;;;-0.07;38.78
84696;BME280;74913;40.204;44.532;2024-02-26T03:00:46;88855.75;;;-0.02;38.60
84696;BME280;74913;40.204;44.532;2024-02-26T03:03:12;88848.84;;;0.01;39.10
84696;BME280;74913;40.204;44.532;2024-02-26T03:05:38;88827.91;;;-0.15;38.90
84696;BME280;74913;40.204;44.532;2024-02-26T03:08:03;88853.78;;;-0.10;39.04
84696;BME280;74913;40.204;44.532;2024-02-26T03:10:29;88855.81;;;-0.14;39.24
84696;BME280;74913;40.204;44.532;2024-02-26T03:12:55;88860.78;;;-0.16;38.70
84696;BME280;74913;40.204;44.532;2024-02-26T03:15:21;88861.91;;;-0.26;38.92
84696;BME280;74913;40.204;44.532;2024-02-26T03:17:47;88860.03;;;-0.38;38.88
84696;BME280;74913;40.204;44.532;2024-02-26T03:20:13;88866.19;;;-0.41;39.00
84696;BME280;74913;40.204;44.532;2024-02-26T03:22:39;88860.91;;;-0.41;39.42
84696;BME280;74913;40.204;44.532;2024-02-26T03:25:06;88852.03;;;-0.47;39.52
84696;BME280;74913;40.204;44.532;2024-02-26T03:27:32;88850.56;;;-0.48;39.39
84696;BME280;74913;40.204;44.532;2024-02-26T03:29:57;88851.81;;;-0.40;39.56
84696;BME280;74913;40.204;44.532;2024-02-26T03:32:23;88853.91;;;-0.35;39.18
84696;BME280;74913;40.204;44.532;2024-02-26T03:34:48;88860.03;;;-0.38;39.08
84696;BME280;74913;40.204;44.532;2024-02-26T03:37:14;88858.56;;;-0.39;39.20
84696;BME280;74913;40.204;44.532;2024-02-26T03:39:40;88857.22;;;-0.44;38.71
84696;BME280;74913;40.204;44.532;2024-02-26T03:42:06;88839.50;;;-0.56;38.89
84696;BME280;74913;40.204;44.532;2024-02-26T03:44:32;88850.56;;;-0.48;38.66
84696;BME280;74913;40.204;44.532;2024-02-26T03:46:57;88860.28;;;-0.45;38.87
84696;BME280;74913;40.204;44.532;2024-02-26T03:49:23;88852.91;;;-0.50;38.84
84696;BME280;74913;40.204;44.532;2024-02-26T03:51:48;88855.47;;;-0.59;38.96
84696;BME280;74913;40.204;44.532;2024-02-26T03:54:14;88852.31;;;-0.67;38.83
84696;BME280;74913;40.204;44.532;2024-02-26T03:56:40;88855.59;;;-0.63;38.49
84696;BME280;74913;40.204;44.532;2024-02-26T03:59:05;88859.28;;;-0.60;38.71
84696;BME280;74913;40.204;44.532;2024-02-26T04:01:31;88856.81;;;-0.55;38.58
84696;BME280;74913;40.204;44.532;2024-02-26T04:03:57;88858.69;;;-0.43;39.03
84696;BME280;74913;40.204;44.532;2024-02-26T04:06:22;88854.13;;;-0.42;38.64
84696;BME280;74913;40.204;44.532;2024-02-26T04:08:48;88840.59;;;-0.44;38.27
84696;BME280;74913;40.204;44.532;2024-02-26T04:11:14;88861.09;;;-0.36;38.21
84696;BME280;74913;40.204;44.532;2024-02-26T04:13:43;88863.59;;;-0.32;38.58
84696;BME280;74913;40.204;44.532;2024-02-26T04:16:15;88872.41;;;-0.35;38.09
84696;BME280;74913;40.204;44.532;2024-02-26T04:18:42;88863.53;;;-0.41;38.21
84696;BME280;74913;40.204;44.532;2024-02-26T04:21:08;88870.63;;;-0.38;37.54
84696;BME280;74913;40.204;44.532;2024-02-26T04:23:33;88879.72;;;-0.39;37.14
84696;BME280;74913;40.204;44.532;2024-02-26T04:25:59;88870.63;;;-0.38;37.21
84696;BME280;74913;40.204;44.532;2024-02-26T04:28:25;88880.09;;;-0.28;37.01
84696;BME280;74913;40.204;44.532;2024-02-26T04:30:56;88879.41;;;-0.20;37.31
84696;BME280;74913;40.204;44.532;2024-02-26T04:33:22;88870.25;;;-0.06;37.54
84696;BME280;74913;40.204;44.532;2024-02-26T04:35:47;88876.69;;;0.36;37.47
84696;BME280;74913;40.204;44.532;2024-02-26T04:38:13;88883.19;;;0.75;36.51
84696;BME280;74913;40.204;44.532;2024-02-26T04:40:38;88883.19;;;1.15;36.88
84696;BME280;74913;40.204;44.532;2024-02-26T04:43:04;88891.81;;;1.55;35.95
84696;BME280;74913;40.204;44.532;2024-02-26T04:45:30;88889.75;;;1.86;35.75
84696;BME280;74913;40.204;44.532;2024-02-26T04:47:55;88877.06;;;2.09;36.03
84696;BME280;74913;40.204;44.532;2024-02-26T04:50:21;88878.78;;;2.39;35.46
84696;BME280;74913;40.204;44.532;2024-02-26T04:52:46;88883.75;;;2.64;35.34
84696;BME280;74913;40.204;44.532;2024-02-26T04:55:12;88887.81;;;2.92;35.28
84696;BME280;74913;40.204;44.532;2024-02-26T04:57:38;88886.53;;;3.11;35.26
84696;BME280;74913;40.204;44.532;2024-02-26T05:00:04;88880.88;;;3.18;35.01
84696;BME280;74913;40.204;44.532;2024-02-26T05:02:30;88890.41;;;3.34;35.63
84696;BME280;74913;40.204;44.532;2024-02-26T05:04:58;88883.53;;;3.51;35.55
84696;BME280;74913;40.204;44.532;2024-02-26T05:07:24;88889.53;;;3.61;35.27
84696;BME280;74913;40.204;44.532;2024-02-26T05:09:50;88872.72;;;3.55;35.44
84696;BME280;74913;40.204;44.532;2024-02-26T05:12:15;88885.00;;;3.76;35.39
84696;BME280;74913;40.204;44.532;2024-02-26T05:14:41;88890.91;;;3.80;35.37
84696;BME280;74913;40.204;44.532;2024-02-26T05:17:08;88888.50;;;3.82;35.46
84696;BME280;74913;40.204;44.532;2024-02-26T05:19:33;88886.25;;;3.89;35.11
84696;BME280;74913;40.204;44.532;2024-02-26T05:21:59;88878.16;;;3.84;35.41
84696;BME280;74913;40.204;44.532;2024-02-26T05:24:25;88890.47;;;3.96;35.27
84696;BME280;74913;40.204;44.532;2024-02-26T05:26:50;88885.53;;;4.04;35.21
84696;BME280;74913;40.204;44.532;2024-02-26T05:29:16;88897.03;;;4.10;35.08
84696;BME280;74913;40.204;44.532;2024-02-26T05:31:42;88894.22;;;4.13;34.89
84696;BME280;74913;40.204;44.532;2024-02-26T05:34:08;88889.44;;;4.17;35.02
84696;BME280;74913;40.204;44.532;2024-02-26T05:36:34;88894.88;;;4.23;34.72
84696;BME280;74913;40.204;44.532;2024-02-26T05:39:00;88887.06;;;4.19;34.41
84696;BME280;74913;40.204;44.532;2024-02-26T05:41:26;88887.44;;;4.27;34.38
84696;BME280;74913;40.204;44.532;2024-02-26T05:43:52;88895.44;;;4.27;34.57
84696;BME280;74913;40.204;44.532;2024-02-26T05:46:19;88890.09;;;4.27;34.07
84696;BME280;74913;40.204;44.532;2024-02-26T05:48:47;88853.78;;;4.00;34.08
84696;BME280;74913;40.204;44.532;2024-02-26T05:51:13;88894.41;;;4.24;34.24
84696;BME280;74913;40.204;44.532;2024-02-26T05:53:38;88897.06;;;4.24;33.97
84696;BME280;74913;40.204;44.532;2024-02-26T05:56:04;88891.63;;;4.19;33.61
84696;BME280;74913;40.204;44.532;2024-02-26T05:58:31;88905.53;;;4.23;34.08
84696;BME280;74913;40.204;44.532;2024-02-26T06:00:56;88901.84;;;4.20;34.41
84696;BME280;74913;40.204;44.532;2024-02-26T06:03:22;88901.75;;;4.15;34.03
84696;BME280;74913;40.204;44.532;2024-02-26T06:05:47;88908.72;;;4.12;33.92
84696;BME280;74913;40.204;44.532;2024-02-26T06:08:13;88903.13;;;4.10;33.95
84696;BME280;74913;40.204;44.532;2024-02-26T06:10:39;88899.59;;;4.04;33.94
84696;BME280;74913;40.204;44.532;2024-02-26T06:13:05;88906.41;;;4.05;34.14
84696;BME280;74913;40.204;44.532;2024-02-26T06:15:30;88906.13;;;4.03;34.23
84696;BME280;74913;40.204;44.532;2024-02-26T06:17:56;88907.94;;;3.97;33.93
84696;BME280;74913;40.204;44.532;2024-02-26T06:20:21;88912.88;;;3.89;33.66
84696;BME280;74913;40.204;44.532;2024-02-26T06:22:47;88884.78;;;3.65;33.80
84696;BME280;74913;40.204;44.532;2024-02-26T06:25:13;88917.25;;;3.78;33.84
84696;BME280;74913;40.204;44.532;2024-02-26T06:27:38;88914.28;;;3.76;33.87
84696;BME280;74913;40.204;44.532;2024-02-26T06:30:04;88914.88;;;3.71;33.86
84696;BME280;74913;40.204;44.532;2024-02-26T06:32:30;88916.66;;;3.74;34.06
84696;BME280;74913;40.204;44.532;2024-02-26T06:34:56;88924.34;;;3.72;34.03
84696;BME280;74913;40.204;44.532;2024-02-26T06:37:22;88920.53;;;3.73;34.02
84696;BME280;74913;40.204;44.532;2024-02-26T06:39:47;88915.50;;;3.66;33.95
84696;BME280;74913;40.204;44.532;2024-02-26T06:42:13;88902.28;;;3.57;33.49
84696;BME280;74913;40.204;44.532;2024-02-26T06:44:39;88912.00;;;3.60;33.58
84696;BME280;74913;40.204;44.532;2024-02-26T06:47:05;88918.22;;;3.57;33.56
84696;BME280;74913;40.204;44.532;2024-02-26T06:49:31;88919.72;;;3.58;33.52
84696;BME280;74913;40.204;44.532;2024-02-26T06:51:56;88916.19;;;3.52;33.16
84696;BME280;74913;40.204;44.532;2024-02-26T06:54:22;88924.16;;;3.52;33.26
84696;BME280;74913;40.204;44.532;2024-02-26T06:56:48;88917.09;;;3.49;33.57
84696;BME280;74913;40.204;44.532;2024-02-26T06:59:13;88923.00;;;3.53;33.48
84696;BME280;74913;40.204;44.532;2024-02-26T07:01:41;88915.72;;;3.53;33.50
84696;BME280;74913;40.204;44.532;2024-02-26T07:04:07;88918.78;;;3.61;32.80
84696;BME280;74913;40.204;44.532;2024-02-26T07:06:33;88915.69;;;3.62;33.10
84696;BME280;74913;40.204;44.532;2024-02-26T07:08:58;88922.88;;;3.71;33.11
84696;BME280;74913;40.204;44.532;2024-02-26T07:11:24;88920.78;;;3.75;32.42
84696;BME280;74913;40.204;44.532;2024-02-26T07:13:49;88926.13;;;3.75;32.95
84696;BME280;74913;40.204;44.532;2024-02-26T07:16:15;88911.59;;;3.76;32.69
84696;BME280;74913;40.204;44.532;2024-02-26T07:18:41;88905.44;;;3.70;32.48
84696;BME280;74913;40.204;44.532;2024-02-26T07:21:09;88905.25;;;3.73;32.80
84696;BME280;74913;40.204;44.532;2024-02-26T07:23:34;88916.16;;;3.84;32.46
84696;BME280;74913;40.204;44.532;2024-02-26T07:26:00;88896.97;;;3.80;32.37
84696;BME280;74913;40.204;44.532;2024-02-26T07:28:26;88915.66;;;3.95;32.46
84696;BME280;74913;40.204;44.532;2024-02-26T07:30:51;88918.59;;;3.97;32.20
84696;BME280;74913;40.204;44.532;2024-02-26T07:33:17;88916.19;;;3.99;32.19
84696;BME280;74913;40.204;44.532;2024-02-26T07:35:43;88919.13;;;4.01;32.30
84696;BME280;74913;40.204;44.532;2024-02-26T07:38:08;88903.75;;;4.05;32.01
84696;BME280;74913;40.204;44.532;2024-02-26T07:40:34;88904.75;;;4.08;32.05
84696;BME280;74913;40.204;44.532;2024-02-26T07:43:00;88912.56;;;4.11;32.35
84696;BME280;74913;40.204;44.532;2024-02-26T07:45:25;88894.53;;;4.06;31.99
84696;BME280;74913;40.204;44.532;2024-02-26T07:47:51;88898.41;;;4.05;32.28
84696;BME280;74913;40.204;44.532;2024-02-26T07:50:17;88906.97;;;4.09;32.03
84696;BME280;74913;40.204;44.532;2024-02-26T07:52:43;88898.81;;;4.13;32.06
84696;BME280;74913;40.204;44.532;2024-02-26T07:55:10;88895.03;;;4.19;32.28
84696;BME280;74913;40.204;44.532;2024-02-26T07:57:35;88904.16;;;4.27;32.31
84696;BME280;74913;40.204;44.532;2024-02-26T08:00:04;88894.06;;;4.31;32.05
84696;BME280;74913;40.204;44.532;2024-02-26T08:02:34;88893.41;;;4.36;32.17
84696;BME280;74913;40.204;44.532;2024-02-26T08:05:00;88886.34;;;4.33;31.71
84696;BME280;74913;40.204;44.532;2024-02-26T08:07:25;88882.13;;;4.41;31.60
84696;BME280;74913;40.204;44.532;2024-02-26T08:09:51;88882.69;;;4.45;31.97
84696;BME280;74913;40.204;44.532;2024-02-26T08:12:17;88886.19;;;4.51;31.70
84696;BME280;74913;40.204;44.532;2024-02-26T08:14:42;88877.91;;;4.49;31.67
84696;BME280;74913;40.204;44.532;2024-02-26T08:17:09;88873.50;;;4.46;31.69
84696;BME280;74913;40.204;44.532;2024-02-26T08:19:35;88874.50;;;4.49;31.71
84696;BME280;74913;40.204;44.532;2024-02-26T08:22:01;88864.88;;;4.51;31.53
84696;BME280;74913;40.204;44.532;2024-02-26T08:24:27;88860.38;;;4.58;31.84
84696;BME280;74913;40.204;44.532;2024-02-26T08:26:53;88851.47;;;4.61;31.33
84696;BME280;74913;40.204;44.532;2024-02-26T08:29:19;88843.19;;;4.59;31.16
84696;BME280;74913;40.204;44.532;2024-02-26T08:31:45;88847.06;;;4.58;30.95
84696;BME280;74913;40.204;44.532;2024-02-26T08:34:10;88841.47;;;4.56;31.15
84696;BME280;74913;40.204;44.532;2024-02-26T08:36:36;88842.84;;;4.66;31.54
84696;BME280;74913;40.204;44.532;2024-02-26T08:39:02;88841.88;;;4.69;31.47
84696;BME280;74913;40.204;44.532;2024-02-26T08:41:28;88840.06;;;4.75;31.56
84696;BME280;74913;40.204;44.532;2024-02-26T08:43:54;88833.81;;;4.78;31.27
84696;BME280;74913;40.204;44.532;2024-02-26T08:46:20;88828.66;;;4.74;31.25
84696;BME280;74913;40.204;44.532;2024-02-26T08:48:46;88815.44;;;4.80;30.87
84696;BME280;74913;40.204;44.532;2024-02-26T08:51:11;88817.44;;;4.85;31.32
84696;BME280;74913;40.204;44.532;2024-02-26T08:53:38;88819.47;;;4.90;30.13
84696;BME280;74913;40.204;44.532;2024-02-26T08:56:04;88793.19;;;4.83;31.07
84696;BME280;74913;40.204;44.532;2024-02-26T08:58:30;88805.47;;;4.95;31.14
84696;BME280;74913;40.204;44.532;2024-02-26T09:00:55;88780.31;;;4.81;31.08
84696;BME280;74913;40.204;44.532;2024-02-26T09:03:21;88789.47;;;4.95;30.80
84696;BME280;74913;40.204;44.532;2024-02-26T09:05:47;88783.97;;;4.98;30.75
84696;BME280;74913;40.204;44.532;2024-02-26T09:08:13;88786.16;;;5.00;31.27
84696;BME280;74913;40.204;44.532;2024-02-26T09:10:39;88766.13;;;4.90;31.10
84696;BME280;74913;40.204;44.532;2024-02-26T09:13:05;88766.31;;;5.01;30.91
84696;BME280;74913;40.204;44.532;2024-02-26T09:15:30;88763.91;;;5.03;30.87
84696;BME280;74913;40.204;44.532;2024-02-26T09:17:56;88767.38;;;5.09;31.07
84696;BME280;74913;40.204;44.532;2024-02-26T09:20:22;88765.53;;;5.15;31.44
84696;BME280;74913;40.204;44.532;2024-02-26T09:22:49;88758.31;;;5.21;30.79
84696;BME280;74913;40.204;44.532;2024-02-26T09:25:18;88745.44;;;5.19;30.84
84696;BME280;74913;40.204;44.532;2024-02-26T09:27:44;88742.84;;;5.25;30.43
84696;BME280;74913;40.204;44.532;2024-02-26T09:30:11;88748.97;;;5.31;31.10
84696;BME280;74913;40.204;44.532;2024-02-26T09:32:38;88729.53;;;5.25;30.99
84696;BME280;74913;40.204;44.532;2024-02-26T09:35:04;88734.53;;;5.38;30.46
84696;BME280;74913;40.204;44.532;2024-02-26T09:37:30;88742.78;;;5.40;30.58
84696;BME280;74913;40.204;44.532;2024-02-26T09:39:55;88732.84;;;5.40;30.64
84696;BME280;74913;40.204;44.532;2024-02-26T09:42:25;88729.25;;;5.43;30.26
84696;BME280;74913;40.204;44.532;2024-02-26T09:44:54;88721.25;;;5.43;29.94
84696;BME280;74913;40.204;44.532;2024-02-26T09:47:23;88726.19;;;5.50;29.92
84696;BME280;74913;40.204;44.532;2024-02-26T09:49:53;88729.78;;;5.47;30.28
84696;BME280;74913;40.204;44.532;2024-02-26T09:52:19;88722.97;;;5.46;30.07
84696;BME280;74913;40.204;44.532;2024-02-26T09:54:48;88716.44;;;5.47;30.02
84696;BME280;74913;40.204;44.532;2024-02-26T09:57:15;88713.44;;;5.60;30.80
84696;BME280;74913;40.204;44.532;2024-02-26T09:59:43;88717.63;;;5.66;29.94
84696;BME280;74913;40.204;44.532;2024-02-26T10:02:09;88719.09;;;5.67;29.25
84696;BME280;74913;40.204;44.532;2024-02-26T10:04:36;88703.34;;;5.69;29.94
84696;BME280;74913;40.204;44.532;2024-02-26T10:07:04;88701.59;;;5.66;30.15
84696;BME280;74913;40.204;44.532;2024-02-26T10:09:30;88700.16;;;5.65;28.60
84696;BME280;74913;40.204;44.532;2024-02-26T10:11:56;88699.47;;;5.70;30.10
84696;BME280;74913;40.204;44.532;2024-02-26T10:14:22;88691.47;;;5.70;29.73
84696;BME280;74913;40.204;44.532;2024-02-26T10:16:49;88693.59;;;5.66;29.58
84696;BME280;74913;40.204;44.532;2024-02-26T10:19:26;88695.81;;;5.68;29.20
84696;BME280;74913;40.204;44.532;2024-02-26T10:21:58;88675.97;;;5.74;29.42
84696;BME280;74913;40.204;44.532;2024-02-26T10:24:25;88689.38;;;5.80;30.21
84696;BME280;74913;40.204;44.532;2024-02-26T10:26:54;88688.25;;;5.87;29.29
84696;BME280;74913;40.204;44.532;2024-02-26T10:29:21;88686.84;;;5.91;30.03
84696;BME280;74913;40.204;44.532;2024-02-26T10:31:47;88669.28;;;5.85;29.50
84696;BME280;74913;40.204;44.532;2024-02-26T10:34:14;88658.06;;;5.80;29.09
84696;BME280;74913;40.204;44.532;2024-02-26T10:36:40;88659.34;;;5.85;29.26
84696;BME280;74913;40.204;44.532;2024-02-26T10:39:07;88638.81;;;5.71;29.14
84696;BME280;74913;40.204;44.532;2024-02-26T10:41:33;88655.25;;;5.90;29.33
84696;BME280;74913;40.204;44.532;2024-02-26T10:43:59;88652.16;;;5.97;29.62
84696;BME280;74913;40.204;44.532;2024-02-26T10:46:26;88642.28;;;6.03;29.55
84696;BME280;74913;40.204;44.532;2024-02-26T10:48:52;88631.91;;;6.10;29.78
84696;BME280;74913;40.204;44.532;2024-02-26T10:51:26;88599.72;;;5.94;28.72
84696;BME280;74913;40.204;44.532;2024-02-26T10:53:55;88627.63;;;6.24;29.30
84696;BME280;74913;40.204;44.532;2024-02-26T10:56:25;88624.00;;;6.27;29.28
84696;BME280;74913;40.204;44.532;2024-02-26T10:58:53;88615.03;;;6.30;29.77
84696;BME280;74913;40.204;44.532;2024-02-26T11:01:19;88610.88;;;6.29;28.66
84696;BME280;74913;40.204;44.532;2024-02-26T11:03:48;88619.69;;;6.35;28.60
84696;BME280;74913;40.204;44.532;2024-02-26T11:06:16;88599.78;;;6.36;28.83
84696;BME280;74913;40.204;44.532;2024-02-26T11:08:43;88606.81;;;6.39;28.45
84696;BME280;74913;40.204;44.532;2024-02-26T11:11:09;88606.06;;;6.33;28.82
84696;BME280;74913;40.204;44.532;2024-02-26T11:13:38;88606.06;;;6.33;29.06
84696;BME280;74913;40.204;44.532;2024-02-26T11:16:06;88568.81;;;6.18;28.64
84696;BME280;74913;40.204;44.532;2024-02-26T11:18:34;88589.09;;;6.36;29.17
84696;BME280;74913;40.204;44.532;2024-02-26T11:21:00;88585.00;;;6.40;29.03
84696;BME280;74913;40.204;44.532;2024-02-26T11:23:26;88594.50;;;6.47;29.19
84696;BME280;74913;40.204;44.532;2024-02-26T11:25:55;88581.81;;;6.42;28.18
84696;BME280;74913;40.204;44.532;2024-02-26T11:28:24;88586.03;;;6.54;28.67
84696;BME280;74913;40.204;44.532;2024-02-26T11:30:51;88573.81;;;6.42;28.78
84696;BME280;74913;40.204;44.532;2024-02-26T11:33:18;88586.75;;;6.55;29.05
84696;BME280;74913;40.204;44.532;2024-02-26T11:35:45;88581.66;;;6.51;28.39
84696;BME280;74913;40.204;44.532;2024-02-26T11:38:19;88582.06;;;6.44;27.39
84696;BME280;74913;40.204;44.532;2024-02-26T11:40:46;88578.97;;;6.51;28.19
84696;BME280;74913;40.204;44.532;2024-02-26T11:43:12;88578.00;;;6.54;27.00
84696;BME280;74913;40.204;44.532;2024-02-26T11:45:48;88569.47;;;6.44;27.33
84696;BME280;74913;40.204;44.532;2024-02-26T11:48:16;88579.97;;;6.54;28.34
84696;BME280;74913;40.204;44.532;2024-02-26T11:50:47;88569.50;;;6.50;28.25
84696;BME280;74913;40.204;44.532;2024-02-26T11:53:28;88566.59;;;6.54;27.31
84696;BME280;74913;40.204;44.532;2024-02-26T11:56:22;88563.91;;;6.48;26.65
84696;BME280;74913;40.204;44.532;2024-02-26T11:58:53;88552.03;;;6.55;27.98
84696;BME280;74913;40.204;44.532;2024-02-26T12:01:38;88567.59;;;6.62;26.78
84696;BME280;74913;40.204;44.532;2024-02-26T12:04:05;88556.91;;;6.62;28.07
84696;BME280;74913;40.204;44.532;2024-02-26T12:06:39;88562.53;;;6.64;27.75
84696;BME280;74913;40.204;44.532;2024-02-26T12:09:07;88556.69;;;6.65;27.97
84696;BME280;74913;40.204;44.532;2024-02-26T12:11:38;88549.88;;;6.64;27.81
84696;BME280;74913;40.204;44.532;2024-02-26T12:14:05;88554.25;;;6.67;28.02
84696;BME280;74913;40.204;44.532;2024-02-26T12:16:39;88554.50;;;6.69;27.53
84696;BME280;74913;40.204;44.532;2024-02-26T12:19:07;88530.16;;;6.56;28.15
84696;BME280;74913;40.204;44.532;2024-02-26T12:21:37;88558.94;;;6.78;28.16
84696;BME280;74913;40.204;44.532;2024-02-26T12:24:14;88556.25;;;6.78;27.43
84696;BME280;74913;40.204;44.532;2024-02-26T12:26:41;88546.56;;;6.80;27.74
84696;BME280;74913;40.204;44.532;2024-02-26T12:29:07;88551.19;;;6.85;28.37
84696;BME280;74913;40.204;44.532;2024-02-26T12:31:33;88534.91;;;6.83;27.88
84696;BME280;74913;40.204;44.532;2024-02-26T12:34:00;88543.91;;;6.86;28.11
84696;BME280;74913;40.204;44.532;2024-02-26T12:36:27;88544.66;;;6.86;27.35
84696;BME280;74913;40.204;44.532;2024-02-26T12:38:53;88536.88;;;6.88;27.59
84696;BME280;74913;40.204;44.532;2024-02-26T12:41:20;88528.09;;;6.82;27.65
84696;BME280;74913;40.204;44.532;2024-02-26T12:43:46;88539.50;;;6.83;27.46
84696;BME280;74913;40.204;44.532;2024-02-26T12:46:11;88535.38;;;6.82;27.75
84696;BME280;74913;40.204;44.532;2024-02-26T12:48:38;88536.84;;;6.83;27.52
84696;BME280;74913;40.204;44.532;2024-02-26T12:51:05;88524.44;;;6.85;27.52
84696;BME280;74913;40.204;44.532;2024-02-26T12:53:32;88517.91;;;6.86;28.35